createdAt,value
2022-12-09T00:00:08.177Z,18.60
2022-12-09T00:02:35.712Z,11.30
2022-12-09T00:05:03.306Z,12.65
2022-12-09T00:07:30.585Z,17.02
2022-12-09T00:09:57.899Z,13.98
2022-12-09T00:12:25.009Z,17.92
2022-12-09T00:14:52.060Z,15.82
2022-12-09T00:17:19.271Z,15.43
2022-12-09T00:19:47.050Z,15.82
2022-12-09T00:22:14.358Z,9.15
2022-12-09T00:24:41.553Z,9.98
2022-12-09T00:27:08.750Z,9.88
2022-12-09T00:29:36.012Z,9.68
2022-12-09T00:32:03.314Z,9.98
2022-12-09T00:34:30.523Z,25.45
2022-12-09T00:36:57.612Z,50.45
2022-12-09T00:39:25.105Z,38.50
2022-12-09T00:41:52.245Z,25.90
2022-12-09T00:44:19.487Z,26.00
2022-12-09T00:46:46.822Z,14.10
2022-12-09T00:49:14.042Z,17.17
2022-12-09T00:51:41.231Z,14.70
2022-12-09T00:54:08.651Z,21.35
2022-12-09T00:56:36.051Z,10.63
2022-12-09T00:59:03.148Z,9.43
2022-12-09T01:01:30.610Z,8.90
2022-12-09T01:03:58.394Z,11.48
2022-12-09T01:06:26.963Z,9.30
2022-12-09T01:08:54.434Z,8.30
2022-12-09T01:11:25.467Z,8.45
2022-12-09T01:13:53.650Z,7.88
2022-12-09T01:16:24.759Z,12.07
2022-12-09T01:18:54.077Z,10.32
2022-12-09T01:21:21.478Z,9.30
2022-12-09T01:23:48.677Z,28.67
2022-12-09T01:26:16.022Z,14.85
2022-12-09T01:28:43.488Z,14.43
2022-12-09T01:31:18.830Z,15.60
2022-12-09T01:33:46.390Z,15.20
2022-12-09T01:36:19.694Z,19.15
2022-12-09T01:38:47.924Z,19.33
2022-12-09T01:41:16.583Z,12.80
2022-12-09T01:43:44.696Z,13.68
2022-12-09T01:46:12.259Z,16.27
2022-12-09T01:48:44.109Z,9.95
2022-12-09T01:51:15.648Z,11.97
2022-12-09T01:53:46.028Z,17.73
2022-12-09T01:56:35.054Z,18.42
2022-12-09T01:59:11.124Z,11.05
2022-12-09T02:01:39.437Z,9.68
2022-12-09T02:04:09.121Z,8.07
2022-12-09T02:06:38.578Z,12.30
2022-12-09T02:09:06.160Z,9.93
2022-12-09T02:11:57.859Z,11.45
2022-12-09T02:14:32.070Z,9.27
2022-12-09T02:17:11.174Z,8.73
2022-12-09T02:20:07.132Z,7.32
2022-12-09T02:22:51.007Z,10.50
2022-12-09T02:25:33.451Z,10.38
2022-12-09T02:28:18.535Z,45.87
2022-12-09T02:30:55.492Z,24.17
2022-12-09T02:33:51.671Z,18.33
2022-12-09T02:36:20.409Z,14.43
2022-12-09T02:38:48.881Z,16.03
2022-12-09T02:41:26.346Z,18.13
2022-12-09T02:44:17.419Z,17.07
2022-12-09T02:46:45.975Z,14.47
2022-12-09T02:49:14.768Z,13.90
2022-12-09T02:51:44.248Z,12.77
2022-12-09T02:54:17.224Z,10.90
2022-12-09T02:56:53.019Z,12.73
2022-12-09T02:59:20.687Z,12.93
2022-12-09T03:02:09.136Z,9.85
2022-12-09T03:04:39.113Z,10.88
2022-12-09T03:07:32.264Z,15.77
2022-12-09T03:10:15.859Z,9.10
2022-12-09T03:12:50.705Z,6.82
2022-12-09T03:15:23.621Z,8.98
2022-12-09T03:17:53.143Z,8.43
2022-12-09T03:20:29.231Z,7.60
2022-12-09T03:23:00.341Z,6.13
2022-12-09T03:25:44.479Z,7.50
2022-12-09T03:28:30.609Z,8.50
2022-12-09T03:31:02.264Z,8.52
2022-12-09T03:33:31.413Z,17.15
2022-12-09T03:36:03.284Z,12.87
2022-12-09T03:38:35.060Z,8.57
2022-12-09T03:41:25.741Z,14.65
2022-12-09T03:44:16.416Z,13.20
2022-12-09T03:46:44.478Z,13.33
2022-12-09T03:49:12.222Z,13.93
2022-12-09T03:51:45.180Z,14.55
2022-12-09T03:54:25.612Z,10.63
2022-12-09T03:56:55.551Z,17.25
2022-12-09T03:59:25.038Z,17.70
2022-12-09T04:01:53.152Z,12.63
2022-12-09T04:04:21.727Z,11.90
2022-12-09T04:06:51.887Z,15.50
2022-12-09T04:09:21.539Z,11.68
2022-12-09T04:11:48.720Z,9.30
2022-12-09T04:14:16.539Z,11.45
2022-12-09T04:16:44.538Z,7.53
2022-12-09T04:19:11.837Z,8.73
2022-12-09T04:21:39.199Z,8.10
2022-12-09T04:24:07.026Z,7.95
2022-12-09T04:26:34.383Z,11.52
2022-12-09T04:29:01.955Z,8.38
2022-12-09T04:31:29.117Z,9.50
2022-12-09T04:33:56.757Z,5.57
2022-12-09T04:36:23.917Z,5.97
2022-12-09T04:38:51.143Z,42.30
2022-12-09T04:41:18.344Z,14.75
2022-12-09T04:43:45.773Z,13.10
2022-12-09T04:46:15.374Z,13.30
2022-12-09T04:48:43.184Z,13.50
2022-12-09T04:51:12.166Z,16.38
2022-12-09T04:53:40.063Z,9.50
2022-12-09T04:56:15.924Z,9.50
2022-12-09T04:58:44.972Z,7.95
2022-12-09T05:01:17.707Z,7.00
2022-12-09T05:03:51.971Z,7.72
2022-12-09T05:06:21.480Z,6.32
2022-12-09T05:08:49.210Z,9.00
2022-12-09T05:11:18.756Z,4.10
2022-12-09T05:13:46.123Z,5.70
2022-12-09T05:16:16.874Z,5.93
2022-12-09T05:18:45.679Z,11.77
2022-12-09T05:21:15.908Z,27.85
2022-12-09T05:23:43.742Z,10.47
2022-12-09T05:26:13.933Z,19.48
2022-12-09T05:28:41.628Z,12.90
2022-12-09T05:31:17.124Z,17.08
2022-12-09T05:33:45.807Z,18.85
2022-12-09T05:36:15.707Z,17.33
2022-12-09T05:38:44.392Z,23.05
2022-12-09T05:41:12.169Z,13.20
2022-12-09T05:43:40.128Z,24.70
2022-12-09T05:46:07.976Z,12.67
2022-12-09T05:48:35.594Z,23.60
2022-12-09T05:51:10.487Z,16.63
2022-12-09T05:53:38.041Z,19.77
2022-12-09T05:56:05.876Z,15.23
2022-12-09T05:58:34.832Z,17.67
2022-12-09T06:01:07.253Z,10.30
2022-12-09T06:03:35.550Z,12.40
2022-12-09T06:06:14.017Z,13.40
2022-12-09T06:08:43.622Z,9.27
2022-12-09T06:11:19.798Z,10.20
2022-12-09T06:13:48.434Z,29.92
2022-12-09T06:16:19.015Z,15.73
2022-12-09T06:18:47.755Z,8.13
2022-12-09T06:21:16.509Z,14.43
2022-12-09T06:23:43.758Z,10.10
2022-12-09T06:26:23.868Z,15.70
2022-12-09T06:28:52.785Z,10.25
2022-12-09T06:31:21.458Z,6.70
2022-12-09T06:33:58.543Z,9.23
2022-12-09T06:36:29.135Z,8.30
2022-12-09T06:39:01.784Z,22.77
2022-12-09T06:41:33.389Z,15.35
2022-12-09T06:44:00.813Z,17.33
2022-12-09T06:46:29.303Z,21.65
2022-12-09T06:48:56.652Z,21.55
2022-12-09T06:51:25.462Z,19.60
2022-12-09T06:53:54.211Z,23.55
2022-12-09T06:56:21.836Z,13.82
2022-12-09T06:58:49.244Z,17.60
2022-12-09T07:01:20.868Z,20.35
2022-12-09T07:03:50.286Z,15.10
2022-12-09T07:06:29.789Z,12.55
2022-12-09T07:09:00.960Z,11.30
2022-12-09T07:11:28.714Z,16.35
2022-12-09T07:13:56.392Z,19.55
2022-12-09T07:16:23.863Z,13.07
2022-12-09T07:18:51.206Z,12.85
2022-12-09T07:21:20.120Z,9.38
2022-12-09T07:23:47.990Z,12.63
2022-12-09T07:26:15.721Z,10.73
2022-12-09T07:28:44.408Z,10.20
2022-12-09T07:31:24.302Z,7.28
2022-12-09T07:33:53.504Z,8.75
2022-12-09T07:36:22.433Z,16.23
2022-12-09T07:38:55.185Z,26.33
2022-12-09T07:41:22.498Z,50.30
2022-12-09T07:43:49.771Z,42.38
2022-12-09T07:46:19.182Z,41.90
2022-12-09T07:48:47.251Z,35.70
2022-12-09T07:51:15.228Z,25.85
2022-12-09T07:53:42.621Z,62.58
2022-12-09T07:56:12.510Z,38.88
2022-12-09T07:58:40.350Z,43.67
2022-12-09T08:01:09.504Z,28.90
2022-12-09T08:03:37.399Z,30.55
2022-12-09T08:06:04.934Z,24.95
2022-12-09T08:08:33.042Z,28.27
2022-12-09T08:11:08.545Z,16.03
2022-12-09T08:13:36.051Z,20.48
2022-12-09T08:16:08.057Z,20.50
2022-12-09T08:18:36.611Z,14.35
2022-12-09T08:21:10.370Z,24.02
2022-12-09T08:23:38.815Z,18.35
2022-12-09T08:26:06.743Z,15.32
2022-12-09T08:28:34.233Z,16.00
2022-12-09T08:31:07.769Z,13.27
2022-12-09T08:33:36.384Z,13.07
2022-12-09T08:36:08.988Z,12.98
2022-12-09T08:38:36.468Z,14.65
2022-12-09T08:41:10.652Z,12.70
2022-12-09T08:43:38.776Z,14.32
2022-12-09T08:46:07.009Z,12.23
2022-12-09T08:48:38.071Z,10.80
2022-12-09T08:51:07.232Z,16.27
2022-12-09T08:53:34.475Z,21.97
2022-12-09T08:56:13.991Z,22.10
2022-12-09T08:58:43.263Z,19.33
2022-12-09T09:01:19.648Z,21.07
2022-12-09T09:03:47.539Z,13.90
2022-12-09T09:06:17.235Z,14.57
2022-12-09T09:08:45.831Z,11.67
2022-12-09T09:11:16.319Z,10.15
2022-12-09T09:13:45.462Z,9.15
2022-12-09T09:16:19.394Z,14.15
2022-12-09T09:18:47.447Z,12.80
2022-12-09T09:21:16.882Z,14.70
2022-12-09T09:23:44.625Z,9.30
2022-12-09T09:26:28.128Z,53.97
2022-12-09T09:28:57.212Z,34.97
2022-12-09T09:31:25.767Z,51.83
2022-12-09T09:33:53.971Z,119.85
2022-12-09T09:36:24.886Z,91.43
2022-12-09T09:38:55.034Z,41.58
2022-12-09T09:41:25.558Z,31.45
2022-12-09T09:43:53.948Z,47.55
2022-12-09T09:46:35.112Z,67.30
2022-12-09T09:49:05.859Z,100.22
2022-12-09T09:51:35.196Z,124.55
2022-12-09T09:54:08.157Z,148.00
2022-12-09T09:56:51.766Z,118.15
2022-12-09T09:59:54.904Z,62.67
2022-12-09T10:03:04.214Z,48.80
2022-12-09T10:05:39.432Z,48.45
2022-12-09T10:08:31.251Z,59.43
2022-12-09T10:11:08.289Z,101.10
2022-12-09T10:13:47.667Z,55.35
2022-12-09T10:16:27.230Z,43.35
2022-12-09T10:19:11.458Z,37.03
2022-12-09T10:21:42.680Z,34.58
2022-12-09T10:24:37.311Z,39.38
2022-12-09T10:27:37.478Z,48.05
2022-12-09T10:30:07.504Z,58.53
2022-12-09T10:32:36.908Z,44.05
2022-12-09T10:35:21.735Z,41.80
2022-12-09T10:37:52.598Z,51.38
2022-12-09T10:40:22.122Z,42.63
2022-12-09T10:43:11.179Z,39.17
2022-12-09T10:48:49.362Z,32.58
2022-12-09T10:51:20.703Z,25.77
2022-12-09T10:53:52.428Z,24.17
2022-12-09T10:56:31.515Z,23.67
2022-12-09T10:59:24.809Z,22.48
2022-12-09T11:02:15.873Z,26.10
2022-12-09T11:04:46.023Z,29.40
2022-12-09T11:07:13.573Z,27.52
2022-12-09T11:09:46.065Z,33.35
2022-12-09T11:12:29.969Z,20.98
2022-12-09T11:15:21.994Z,17.80
2022-12-09T11:18:02.797Z,20.13
2022-12-09T11:20:33.064Z,19.33
2022-12-09T11:23:05.406Z,34.47
2022-12-09T11:25:36.840Z,20.10
2022-12-09T11:28:16.538Z,20.13
2022-12-09T11:34:03.686Z,15.68
2022-12-09T11:36:37.068Z,15.70
2022-12-09T11:39:16.027Z,15.52
2022-12-09T11:42:17.046Z,13.57
2022-12-09T11:45:18.990Z,16.00
2022-12-09T11:56:17.292Z,9.27
2022-12-09T11:59:20.813Z,11.27
2022-12-09T12:02:05.985Z,9.73
2022-12-09T12:04:39.193Z,15.05
2022-12-09T12:07:20.289Z,10.40
2022-12-09T12:09:54.041Z,8.98
2022-12-09T12:13:09.208Z,9.35
2022-12-09T12:16:04.600Z,9.60
2022-12-09T12:18:59.442Z,6.57
2022-12-09T12:22:03.117Z,7.13
2022-12-09T12:24:53.684Z,10.00
2022-12-09T12:27:31.425Z,9.77
2022-12-09T12:30:10.535Z,9.77
2022-12-09T12:36:26.060Z,12.07
2022-12-09T12:39:02.947Z,13.17
2022-12-09T12:41:39.229Z,14.20
2022-12-09T12:45:16.572Z,8.65
2022-12-09T12:47:53.124Z,9.85
2022-12-09T12:50:35.233Z,16.00
2022-12-09T12:53:12.954Z,11.67
2022-12-09T12:55:49.024Z,13.55
2022-12-09T12:58:24.637Z,17.33
2022-12-09T13:01:17.574Z,26.58
2022-12-09T13:04:03.553Z,28.48
2022-12-09T13:07:06.098Z,21.98
2022-12-09T13:09:47.737Z,20.63
2022-12-09T13:12:54.876Z,15.25
2022-12-09T13:15:27.349Z,18.80
2022-12-09T13:17:55.565Z,24.52
2022-12-09T13:20:30.138Z,22.13
2022-12-09T13:23:18.906Z,15.20
2022-12-09T13:26:06.208Z,14.50
2022-12-09T13:28:56.858Z,16.38
2022-12-09T13:31:32.366Z,16.58
2022-12-09T13:34:22.271Z,33.40
2022-12-09T13:36:49.579Z,22.02
2022-12-09T13:39:41.508Z,19.45
2022-12-09T13:42:46.638Z,18.20
2022-12-09T13:45:37.725Z,13.98
2022-12-09T13:48:16.556Z,16.17
2022-12-09T13:50:57.311Z,14.23
2022-12-09T13:53:29.210Z,14.20
2022-12-09T13:56:16.227Z,12.02
2022-12-09T13:58:46.395Z,12.02
2022-12-09T14:01:36.502Z,12.65
2022-12-09T14:04:20.735Z,10.65
2022-12-09T14:06:56.623Z,10.35
2022-12-09T14:09:29.723Z,9.55
2022-12-09T14:12:00.311Z,10.27
2022-12-09T14:14:27.323Z,10.02
2022-12-09T14:17:00.032Z,6.22
2022-12-09T14:19:27.124Z,7.45
2022-12-09T14:22:24.939Z,8.73
2022-12-09T14:24:53.083Z,29.77
2022-12-09T14:27:30.832Z,44.00
2022-12-09T14:30:24.445Z,110.95
2022-12-09T14:32:54.742Z,84.38
2022-12-09T14:35:41.785Z,80.75
2022-12-09T14:38:23.031Z,82.53
2022-12-09T14:41:11.664Z,86.97
2022-12-09T14:44:08.270Z,226.13
2022-12-09T14:46:41.111Z,151.60
2022-12-09T14:49:27.213Z,118.63
2022-12-09T14:52:11.996Z,138.60
2022-12-09T14:54:47.383Z,111.40
2022-12-09T14:57:23.163Z,93.00
2022-12-09T14:59:52.960Z,90.70
2022-12-09T15:02:21.493Z,90.38
2022-12-09T15:04:50.674Z,96.35
2022-12-09T15:07:22.113Z,96.72
2022-12-09T15:09:52.073Z,102.70
2022-12-09T15:12:32.276Z,70.65
2022-12-09T15:15:17.178Z,112.13
2022-12-09T15:17:46.281Z,92.47
2022-12-09T15:20:47.794Z,67.47
2022-12-09T15:23:29.786Z,64.32
2022-12-09T15:25:59.852Z,58.15
2022-12-09T15:28:30.162Z,47.17
2022-12-09T15:31:02.675Z,54.17
2022-12-09T15:33:32.550Z,52.08
2022-12-09T15:36:05.134Z,50.67
2022-12-09T15:38:40.690Z,45.65
2022-12-09T15:41:28.055Z,39.65
2022-12-09T15:43:59.179Z,27.10
2022-12-09T15:46:27.065Z,33.38
2022-12-09T15:48:57.615Z,33.30
2022-12-09T15:51:26.715Z,22.23
2022-12-09T15:53:58.171Z,24.10
2022-12-09T15:56:46.634Z,21.85
2022-12-09T15:59:39.082Z,25.30
2022-12-09T16:02:07.580Z,22.63
2022-12-09T16:04:41.739Z,25.73
2022-12-09T16:07:12.775Z,25.98
2022-12-09T16:09:40.363Z,24.25
2022-12-09T16:12:28.307Z,25.85
2022-12-09T16:14:55.424Z,23.00
2022-12-09T16:17:26.932Z,19.88
2022-12-09T16:19:54.412Z,18.73
2022-12-09T16:22:28.599Z,17.50
2022-12-09T16:25:14.714Z,19.60
2022-12-09T16:27:48.590Z,18.05
2022-12-09T16:30:18.225Z,12.80
2022-12-09T16:32:47.900Z,14.87
2022-12-09T16:35:33.564Z,9.35
2022-12-09T16:38:06.469Z,11.73
2022-12-09T16:40:33.505Z,9.95
2022-12-09T16:43:15.723Z,9.32
2022-12-09T16:45:53.055Z,8.75
2022-12-09T16:48:22.177Z,7.88
2022-12-09T16:51:09.756Z,10.02
2022-12-09T16:53:45.573Z,7.28
2022-12-09T16:56:24.828Z,7.63
2022-12-09T16:58:52.938Z,7.50
2022-12-09T17:01:31.687Z,7.03
2022-12-09T17:04:04.108Z,6.60
2022-12-09T17:06:31.985Z,11.48
2022-12-09T17:08:59.097Z,12.45
2022-12-09T17:11:26.256Z,6.93
2022-12-09T17:13:53.589Z,14.05
2022-12-09T17:16:25.637Z,11.95
2022-12-09T17:18:52.892Z,10.90
2022-12-09T17:21:20.021Z,10.82
2022-12-09T17:23:47.277Z,17.67
2022-12-09T17:26:16.774Z,12.60
2022-12-09T17:28:45.018Z,14.27
2022-12-09T17:31:17.816Z,16.02
2022-12-09T17:33:45.122Z,15.17
2022-12-09T17:36:13.493Z,14.32
2022-12-09T17:38:40.876Z,22.90
2022-12-09T17:41:10.866Z,13.23
2022-12-09T17:43:37.931Z,18.20
2022-12-09T17:46:06.294Z,18.07
2022-12-09T17:48:34.861Z,20.55
2022-12-09T17:51:23.677Z,14.65
2022-12-09T17:53:50.849Z,12.75
2022-12-09T17:56:20.620Z,18.67
2022-12-09T17:58:55.093Z,16.67
2022-12-09T18:01:23.977Z,22.50
2022-12-09T18:03:56.413Z,39.37
2022-12-09T18:06:31.054Z,30.13
2022-12-09T18:08:58.122Z,27.42
2022-12-09T18:11:25.329Z,21.25
2022-12-09T18:13:53.537Z,17.37
2022-12-09T18:16:20.847Z,20.02
2022-12-09T18:18:48.170Z,20.27
2022-12-09T18:21:16.266Z,13.65
2022-12-09T18:23:43.854Z,16.33
2022-12-09T18:26:14.502Z,12.70
2022-12-09T18:28:41.950Z,12.93
2022-12-09T18:31:14.590Z,13.57
2022-12-09T18:33:42.698Z,12.60
2022-12-09T18:36:13.047Z,10.13
2022-12-09T18:38:41.326Z,23.50
2022-12-09T18:41:13.250Z,18.90
2022-12-09T18:43:42.322Z,25.13
2022-12-09T18:46:21.331Z,23.33
2022-12-09T18:48:58.007Z,19.95
2022-12-09T18:51:26.000Z,19.85
2022-12-09T18:53:53.414Z,24.98
2022-12-09T18:56:20.503Z,15.63
2022-12-09T18:59:05.877Z,16.15
2022-12-09T19:01:35.542Z,11.93
2022-12-09T19:04:04.395Z,14.80
2022-12-09T19:06:36.360Z,17.77
2022-12-09T19:09:12.314Z,14.43
2022-12-09T19:11:40.646Z,10.48
2022-12-09T19:14:09.270Z,12.48
2022-12-09T19:16:36.835Z,13.77
2022-12-09T19:19:09.592Z,13.80
2022-12-09T19:21:38.298Z,13.43
2022-12-09T19:24:06.031Z,10.23
2022-12-09T19:26:34.662Z,10.65
2022-12-09T19:29:04.499Z,11.55
2022-12-09T19:31:37.766Z,10.82
2022-12-09T19:34:15.313Z,10.48
2022-12-09T19:36:43.295Z,11.83
2022-12-09T19:39:12.182Z,11.57
2022-12-09T19:41:40.309Z,10.63
2022-12-09T19:44:09.520Z,11.05
2022-12-09T19:46:38.277Z,7.93
2022-12-09T19:49:05.508Z,9.57
2022-12-09T19:51:33.008Z,7.77
2022-12-09T19:54:01.740Z,6.78
2022-12-09T19:56:29.403Z,10.75
2022-12-09T19:58:57.061Z,9.32
2022-12-09T20:01:30.563Z,10.38
2022-12-09T20:04:08.919Z,9.97
2022-12-09T20:06:46.566Z,15.07
2022-12-09T20:09:17.527Z,27.70
2022-12-09T20:11:44.826Z,23.65
2022-12-09T20:14:13.559Z,23.50
2022-12-09T20:16:41.139Z,16.02
2022-12-09T20:19:08.620Z,23.65
2022-12-09T20:21:37.525Z,22.00
2022-12-09T20:24:05.120Z,19.55
2022-12-09T20:26:34.889Z,17.02
2022-12-09T20:29:05.885Z,18.45
2022-12-09T20:31:35.814Z,15.13
2022-12-09T20:34:10.436Z,20.73
2022-12-09T20:36:40.340Z,17.55
2022-12-09T20:39:12.414Z,13.98
2022-12-09T20:41:41.617Z,13.38
2022-12-09T20:44:10.397Z,29.55
2022-12-09T20:46:39.417Z,10.85
2022-12-09T20:49:06.662Z,13.40
2022-12-09T20:51:36.724Z,13.80
2022-12-09T20:54:05.336Z,10.85
2022-12-09T20:56:33.103Z,8.73
2022-12-09T20:59:00.476Z,10.20
2022-12-09T21:01:30.836Z,8.57
2022-12-09T21:03:59.868Z,7.43
2022-12-09T21:06:30.127Z,40.03
2022-12-09T21:09:00.962Z,17.55
2022-12-09T21:11:28.111Z,16.10
2022-12-09T21:13:59.185Z,13.27
2022-12-09T21:16:29.138Z,12.70
2022-12-09T21:19:00.123Z,14.43
2022-12-09T21:21:30.076Z,13.93
2022-12-09T21:23:57.335Z,10.32
2022-12-09T21:26:25.979Z,10.70
2022-12-09T21:28:53.529Z,10.50
2022-12-09T21:31:44.116Z,15.85
2022-12-09T21:34:11.274Z,15.35
2022-12-09T21:36:42.286Z,11.73
2022-12-09T21:39:13.007Z,16.60
2022-12-09T21:41:40.361Z,15.27
2022-12-09T21:44:08.002Z,17.27
2022-12-09T21:46:37.114Z,21.40
2022-12-09T21:49:06.425Z,16.65
2022-12-09T21:51:34.673Z,14.10
2022-12-09T21:54:02.462Z,14.63
2022-12-09T21:56:31.214Z,12.45
2022-12-09T21:58:59.251Z,16.30
2022-12-09T22:01:35.785Z,19.60
2022-12-09T22:04:05.226Z,15.88
2022-12-09T22:06:32.365Z,14.52
2022-12-09T22:09:01.042Z,18.23
2022-12-09T22:11:31.069Z,14.27
2022-12-09T22:14:00.144Z,16.20
2022-12-09T22:16:30.868Z,14.98
2022-12-09T22:18:59.651Z,21.48
2022-12-09T22:21:29.683Z,14.88
2022-12-09T22:24:00.739Z,17.48
2022-12-09T22:26:28.496Z,15.20
2022-12-09T22:28:58.126Z,15.70
2022-12-09T22:31:30.562Z,16.48
2022-12-09T22:34:02.219Z,11.00
2022-12-09T22:36:29.297Z,12.20
2022-12-09T22:38:56.586Z,9.02
2022-12-09T22:41:26.119Z,7.90
2022-12-09T22:43:54.853Z,6.97
2022-12-09T22:46:30.288Z,9.38
2022-12-09T22:49:01.025Z,17.63
2022-12-09T22:51:30.433Z,33.53
2022-12-09T22:53:58.280Z,24.45
2022-12-09T22:56:26.068Z,23.25
2022-12-09T22:58:54.060Z,19.00
2022-12-09T23:01:23.909Z,41.60
2022-12-09T23:03:51.110Z,35.35
2022-12-09T23:06:18.391Z,26.97
2022-12-09T23:08:45.521Z,28.92
2022-12-09T23:11:15.592Z,28.58
2022-12-09T23:13:43.159Z,29.02
2022-12-09T23:16:19.249Z,35.03
2022-12-09T23:18:46.525Z,30.25
2022-12-09T23:21:17.296Z,35.25
2022-12-09T23:23:44.604Z,32.37
2022-12-09T23:26:14.968Z,36.17
2022-12-09T23:28:45.069Z,27.50
2022-12-09T23:31:14.932Z,27.02
2022-12-09T23:33:44.081Z,20.83
2022-12-09T23:36:17.312Z,22.13
2022-12-09T23:38:45.084Z,21.80
2022-12-09T23:41:12.600Z,19.90
2022-12-09T23:43:39.776Z,19.95
2022-12-09T23:46:15.378Z,16.30
2022-12-09T23:48:44.921Z,19.10
2022-12-09T23:51:23.816Z,19.27
2022-12-09T23:53:53.822Z,15.68
2022-12-09T23:56:22.605Z,16.15
2022-12-09T23:58:57.149Z,18.23
